Map

Track Data

SID SEASON NUMBER BASIN SUBBASIN NAME ISO_TIME NATURE LAT LON WMO_WIND WMO_PRES WMO_AGENCY TRACK_TYPE DIST2LAND LANDFALL IFLAG USA_AGENCY USA_ATCF_ID USA_LAT USA_LON USA_RECORD USA_STATUS USA_WIND USA_PRES USA_SSHS USA_R34_NE USA_R34_SE USA_R34_SW USA_R34_NW USA_R50_NE USA_R50_SE USA_R50_SW USA_R50_NW USA_R64_NE USA_R64_SE USA_R64_SW USA_R64_NW USA_POCI USA_ROCI USA_RMW USA_EYE TOKYO_LAT TOKYO_LON TOKYO_GRADE TOKYO_WIND TOKYO_PRES TOKYO_R50_DIR TOKYO_R50_LONG TOKYO_R50_SHORT TOKYO_R30_DIR TOKYO_R30_LONG TOKYO_R30_SHORT TOKYO_LAND CMA_LAT CMA_LON CMA_CAT CMA_WIND CMA_PRES HKO_LAT HKO_LON HKO_CAT HKO_WIND HKO_PRES NEWDELHI_LAT NEWDELHI_LON NEWDELHI_GRADE NEWDELHI_WIND NEWDELHI_PRES NEWDELHI_CI NEWDELHI_DP NEWDELHI_POCI REUNION_LAT REUNION_LON REUNION_TYPE REUNION_WIND REUNION_PRES REUNION_TNUM REUNION_CI REUNION_RMW REUNION_R34_NE REUNION_R34_SE REUNION_R34_SW REUNION_R34_NW REUNION_R50_NE REUNION_R50_SE REUNION_R50_SW REUNION_R50_NW REUNION_R64_NE REUNION_R64_SE REUNION_R64_SW REUNION_R64_NW BOM_LAT BOM_LON BOM_TYPE BOM_WIND BOM_PRES BOM_TNUM BOM_CI BOM_RMW BOM_R34_NE BOM_R34_SE BOM_R34_SW BOM_R34_NW BOM_R50_NE BOM_R50_SE BOM_R50_SW BOM_R50_NW BOM_R64_NE BOM_R64_SE BOM_R64_SW BOM_R64_NW BOM_ROCI BOM_POCI BOM_EYE BOM_POS_METHOD BOM_PRES_METHOD NADI_LAT NADI_LON NADI_CAT NADI_WIND NADI_PRES WELLINGTON_LAT WELLINGTON_LON WELLINGTON_WIND WELLINGTON_PRES DS824_LAT DS824_LON DS824_STAGE DS824_WIND DS824_PRES TD9636_LAT TD9636_LON TD9636_STAGE TD9636_WIND TD9636_PRES TD9635_LAT TD9635_LON TD9635_WIND TD9635_PRES TD9635_ROCI NEUMANN_LAT NEUMANN_LON NEUMANN_CLASS NEUMANN_WIND NEUMANN_PRES MLC_LAT MLC_LON MLC_CLASS MLC_WIND MLC_PRES USA_GUST BOM_GUST BOM_GUST_PER REUNION_GUST REUNION_GUST_PER USA_SEAHGT USA_SEARAD_NE USA_SEARAD_SE USA_SEARAD_SW USA_SEARAD_NW STORM_SPEED STORM_DIR
1989238N22253 1989 89 EP MM KIKO 1989-08-25 12:00:00 TS 21.7000 -107.025 30 1006 hurdat_epa main 148 148 O_________O___ hurdat_epa EP141989 21.7000 -107.000 TD 30 1006 -1 21.7000 -107.000 1 30 2 326
1989238N22253 1989 89 EP MM KIKO 1989-08-25 15:00:00 TS 21.7924 -107.103 main 154 154 P_________P___ EP141989 21.7800 -107.080 TD 32 1004 -1 21.8297 -107.134 1 33 3 320
1989238N22253 1989 89 EP MM KIKO 1989-08-25 18:00:00 TS 21.9169 -107.218 35 1003 hurdat_epa main 158 158 O_________P___ hurdat_epa EP141989 21.9000 -107.200 TS 35 1003 0 21.9674 -107.274 1 37 4 318
1989238N22253 1989 89 EP MM KIKO 1989-08-25 21:00:00 TS 22.0941 -107.394 main 158 158 P_________P___ EP141989 22.0850 -107.385 TS 40 1000 0 22.1215 -107.427 1 41 5 317
1989238N22253 1989 89 EP MM KIKO 1989-08-26 00:00:00 TS 22.3000 -107.600 45 997 hurdat_epa main 158 154 O_________O___ hurdat_epa EP141989 22.3000 -107.600 TS 45 997 0 22.3000 -107.600 2 45 6 318
1989238N22253 1989 89 EP MM KIKO 1989-08-26 03:00:00 TS 22.5064 -107.799 main 163 158 P_________P___ EP141989 22.5075 -107.800 TS 55 992 0 22.5033 -107.795 2 55 5 317
1989238N22253 1989 89 EP MM KIKO 1989-08-26 06:00:00 TS 22.7000 -108.000 65 987 hurdat_epa main 163 134 O_________O___ hurdat_epa EP141989 22.7000 -108.000 HU 65 987 1 22.7000 -108.000 3 65 5 314
1989238N22253 1989 89 EP MM KIKO 1989-08-26 09:00:00 TS 22.8639 -108.199 main 134 111 P_________P___ EP141989 22.8650 -108.200 HU 75 981 1 22.8606 -108.198 3 75 5 309
1989238N22253 1989 89 EP MM KIKO 1989-08-26 12:00:00 TS 23.0000 -108.400 85 975 hurdat_epa main 111 88 O_________O___ hurdat_epa EP141989 23.0000 -108.400 HU 85 975 2 23.0000 -108.400 4 85 4 304
1989238N22253 1989 89 EP MM KIKO 1989-08-26 15:00:00 TS 23.1104 -108.599 main 88 65 P_________P___ EP141989 23.0999 -108.593 HU 92 967 2 23.1416 -108.619 4 90 4 300
1989238N22253 1989 89 EP MM KIKO 1989-08-26 18:00:00 TS 23.2185 -108.812 100 960 hurdat_epa main 65 40 O_________P___ hurdat_epa EP141989 23.2000 -108.800 HU 100 960 3 23.2739 -108.847 4 95 5 301
1989238N22253 1989 89 EP MM KIKO 1989-08-26 21:00:00 TS 23.3667 -109.056 main 30 15 P_________P___ EP141989 23.3575 -109.050 HU 102 957 3 23.3942 -109.076 4 100 5 302
1989238N22253 1989 89 EP MM KIKO 1989-08-27 00:00:00 TS 23.5000 -109.300 105 955 hurdat_epa main 15 0 O_________O___ hurdat_epa EP141989 23.5000 -109.300 HU 105 955 3 23.5000 -109.300 4 105 5 296
1989238N22253 1989 89 EP MM KIKO 1989-08-27 03:00:00 TS 23.5674 -109.509 main 0 0 P_________P___ EP141989 23.5574 -109.508 HU 102 957 3 23.5974 -109.511 4 98 4 288
1989238N22253 1989 89 EP MM KIKO 1989-08-27 06:00:00 TS 23.6200 -109.704 100 960 hurdat_epa main 0 0 O_________P___ hurdat_epa EP141989 23.6000 -109.700 L HU 100 960 3 23.6799 -109.715 4 92 4 293
1989238N22253 1989 89 EP MM KIKO 1989-08-27 09:00:00 TS 23.7175 -109.903 main 0 0 P_________P___ EP141989 23.7075 -109.900 HU 90 964 2 23.7474 -109.911 4 86 4 296
1989238N22253 1989 89 EP MM KIKO 1989-08-27 12:00:00 TS 23.8000 -110.100 80 968 hurdat_epa main 0 0 O_________O___ hurdat_epa EP141989 23.8000 -110.100 HU 80 968 1 23.8000 -110.100 4 80 4 286
1989238N22253 1989 89 EP MM KIKO 1989-08-27 15:00:00 TS 23.8205 -110.302 main 0 0 P_________P___ EP141989 23.8075 -110.308 HU 70 971 1 23.8596 -110.286 4 71 4 274
1989238N22253 1989 89 EP MM KIKO 1989-08-27 18:00:00 TS 23.8256 -110.491 60 975 hurdat_epa main 0 0 O_________P___ hurdat_epa EP141989 23.8000 -110.500 TS 60 975 0 23.9024 -110.465 4 62 3 279
1989238N22253 1989 89 EP MM KIKO 1989-08-27 21:00:00 TS 23.8728 -110.652 main 0 0 P_________P___ EP141989 23.8575 -110.657 TS 52 978 0 23.9190 -110.636 4 53 3 285
1989238N22253 1989 89 EP MM KIKO 1989-08-28 00:00:00 TS 23.9000 -110.800 45 982 hurdat_epa main 0 0 O_________O___ hurdat_epa EP141989 23.9000 -110.800 TS 45 982 0 23.9000 -110.800 2 45 3 270
1989238N22253 1989 89 EP MM KIKO 1989-08-28 03:00:00 TS 23.8720 -110.950 main 10 10 P_________P___ EP141989 23.8800 -110.950 TS 37 985 0 23.8480 -110.949 2 40 3 248
1989238N22253 1989 89 EP MM KIKO 1989-08-28 06:00:00 TS 23.7899 -111.098 30 988 hurdat_epa main 30 30 O_________P___ hurdat_epa EP141989 23.8000 -111.100 TD 30 988 -1 23.7598 -111.092 2 35 3 233
1989238N22253 1989 89 EP MM KIKO 1989-08-28 09:00:00 TS 23.6704 -111.244 main 45 45 P_________P___ EP141989 23.6800 -111.242 TD 27 991 -1 23.6417 -111.240 2 30 4 224
1989238N22253 1989 89 EP MM KIKO 1989-08-28 12:00:00 TS 23.5000 -111.400 25 994 hurdat_epa main 73 73 O_________O___ hurdat_epa EP141989 23.5000 -111.400 TD 25 994 -1 23.5000 -111.400 1 25 5 218
1989238N22253 1989 89 EP MM KIKO 1989-08-28 15:00:00 TS 23.2755 -111.576 main 102 102 P_________P___ EP141989 23.2425 -111.593 TD 25 997 -1 23.3669 -111.585 1 25 6 217
1989238N22253 1989 89 EP MM KIKO 1989-08-28 18:00:00 TS 23.0525 -111.771 25 1000 hurdat_epa main 132 132 O_________P___ hurdat_epa EP141989 23.0000 -111.800 TD 25 1000 -1 23.2100 -111.785 1 25 5 225
1989238N22253 1989 89 EP MM KIKO 1989-08-28 21:00:00 TS 22.9126 -111.970 main 162 162 P_________P___ EP141989 22.8999 -111.985 TD 25 1002 -1 23.0231 -111.992 1 25 5 235
1989238N22253 1989 89 EP MM KIKO 1989-08-29 00:00:00 TS 22.7800 -112.200 25 1004 hurdat_epa main 183 183 O_________O___ hurdat_epa EP141989 22.8000 -112.200 TD 25 1004 -1 22.8000 -112.200 1 25 6 235
1989238N22253 1989 89 EP MM KIKO 1989-08-29 03:00:00 TS 22.5735 -112.495 main 220 220 P_________P___ EP141989 22.5876 -112.515 TD 25 1005 -1 22.5342 -112.434 1 23 7 227
1989238N22253 1989 89 EP MM KIKO 1989-08-29 06:00:00 TS 22.2952 -112.765 25 1006 hurdat_epa main 264 264 O_________P___ hurdat_epa EP141989 22.3000 -112.800 TD 25 1006 -1 22.2342 -112.662 1 22 7 211
1989238N22253 1989 89 EP MM KIKO 1989-08-29 09:00:00 TS 21.9440 -112.911 main 307 307 P_________P___ EP141989 21.9574 -112.937 TD 22 1007 -1 21.9171 -112.859 1 21 7 197
1989238N22253 1989 89 EP MM KIKO 1989-08-29 12:00:00 TS 21.6000 -113.000 20 1008 hurdat_epa main 340 340 O_________O___ hurdat_epa EP141989 21.6000 -113.000 TD 20 1008 -1 21.6000 -113.000 1 20 7 192
1989238N22253 1989 89 EP MM KIKO 1989-08-29 15:00:00 TS 21.2886 -113.057 main 365 365 P_________P___ EP141989 21.2850 -113.050 TD 17 1009 -1 21.2957 -113.070 1 17 6 189
1989238N22253 1989 89 EP MM KIKO 1989-08-29 18:00:00 TS 21.0000 -113.100 15 1010 hurdat_epa main 383 O_________O___ hurdat_epa EP141989 21.0000 -113.100 TD 15 1010 -1 21.0000 -113.100 1 15 6 187

About IBTrACS Database

This database is a web-friendly format of International Best Track Archive for Climate Stewardship (IBTrACS), a global best track data archive curated by NOAA dating back to 1842.

Updated: 2021-10-27